Terminal Aerodrome Forecast
Issued by NWS

Home | Current Version | Previous Version | Text Only | Print | Product List | Glossary On
Versions: 1 2 3 4 5 6 7 8 9 10 11 12 13 14 15 16
098
FTPA31 PHFO 310212 AAA
TAFHKO
TAF AMD
PHKO 310212Z 3102/3124 20011KT P6SM FEW035 BKN060
     FM310900 14005KT P6SM SCT025 SCT060
     FM312000 35015KT P6SM VCSH SCT015 BKN050=

USA.gov is the U.S. government's official web portal to all federal, state and local government web resources and services.